• Join FlightAware (Why Join?)
  • Login
  • US Flag 
07:58PM EST


 

Airport Tracker/Info


-or-


 

Live Flight TrackerFlight Track Log ✈ CPT1940 ✈ 05-Aug-2014 ✈ KCOD - KCPR

Flight Track Log - Related Links

Times and Time Zones

All times are in EDT time to prevent confusion due to time zone crossing. See the CPT1940 flight status page for this flight to view local times or setup timezone preferences in your user account.

Time Position Orientation Groundspeed Altitude Reporting Facility
EDT Latitude Longitude Course Direction KTS MPH feet Rate Location/Type
11:19AM 44.5100 -108.9714 132° Southeast 118 136 6,600  Level Salt Lake Center
11:20AM 44.4897 -108.9369 130° Southeast 115 132 7,500 840 Climbing Salt Lake Center
11:22AM 44.4628 -108.8933 131° Southeast 117 135 8,400 720 Climbing Salt Lake Center
11:23AM 44.4389 -108.8542 130° Southeast 122 140 9,100 660 Climbing Salt Lake Center
11:24AM 44.4133 -108.8117 130° Southeast 131 151 9,800 600 Climbing Salt Lake Center
11:25AM 44.3794 -108.7842 132° Southeast  Level FlightAware Approximate
11:25AM 44.3878 -108.7697 130° Southeast 137 158 10,400  Level Salt Lake Center
11:26AM 44.3608 -108.7300 133° Southeast 137 158 11,000 660 Climbing Salt Lake Center
11:27AM 44.3314 -108.6819 131° Southeast 137 158 11,800 660 Climbing Salt Lake Center
11:28AM 44.3064 -108.6417 131° Southeast 137 158 12,400 540 Climbing Salt Lake Center
11:29AM 44.2814 -108.6014 131° Southeast 137 158 13,000 240 Climbing Salt Lake Center
11:30AM 44.2542 -108.5592 132° Southeast 138 159 13,000  Level Salt Lake Center
11:31AM 44.2231 -108.5114 132° Southeast 149 171 13,000  Level Salt Lake Center
11:32AM 44.1928 -108.4633 131° Southeast 158 182 13,000  Level Salt Lake Center
11:33AM 44.1553 -108.4067 133° Southeast 162 186 13,000  Level Salt Lake Center
11:34AM 44.1253 -108.3586 131° Southeast 162 186 13,000  Level Salt Lake Center
11:35AM 44.0961 -108.3114 131° Southeast 162 186 13,000  Level Salt Lake Center
11:36AM 44.0675 -108.2644 130° Southeast 162 186 13,000  Level Salt Lake Center
11:37AM 44.0389 -108.2186 131° Southeast 162 186 13,000 -60 Level Salt Lake Center
11:38AM 44.0031 -108.1633 132° Southeast 162 186 12,900 -60 Descending Salt Lake Center
11:39AM 43.9744 -108.1169 131° Southeast 162 186 12,900  Level Salt Lake Center
11:40AM 43.9453 -108.0706 131° Southeast 162 186 12,900  Level Salt Lake Center
11:41AM 43.9156 -108.0242 132° Southeast 162 186 12,900  Level Salt Lake Center
11:42AM 43.8869 -107.9778 131° Southeast 162 186 13,000  Climbing Salt Lake Center
11:43AM 43.8592 -107.9328 131° Southeast 161 185 13,000  Level Salt Lake Center
11:44AM 43.8264 -107.8778 130° Southeast 159 183 13,000  Level Salt Lake Center
11:45AM 43.7975 -107.8303 130° Southeast 159 183 13,000  Level Salt Lake Center
11:46AM 43.7686 -107.7858 132° Southeast 159 183 13,000  Level Salt Lake Center
11:47AM 43.7400 -107.7422 132° Southeast 159 183 13,100  Climbing Salt Lake Center
11:48AM 43.7122 -107.6989 132° Southeast 157 181 13,100  Level Salt Lake Center
11:49AM 43.6775 -107.6467 133° Southeast 153 176 13,100 -60 Level Salt Lake Center
11:51AM 43.6494 -107.6017 131° Southeast 153 176 13,000 -60 Descending Salt Lake Center
11:52AM 43.6200 -107.5578 133° Southeast 154 177 13,000  Level Salt Lake Center
11:53AM 43.5925 -107.5131 130° Southeast 153 176 13,000  Level Salt Lake Center
11:54AM 43.5639 -107.4686 132° Southeast 154 177 13,000  Level Salt Lake Center
11:55AM 43.5344 -107.4242 132° Southeast 154 177 13,000  Level Salt Lake Center
11:56AM 43.5003 -107.3703 131° Southeast 158 182 13,000  Level Salt Lake Center
11:57AM 43.4719 -107.3206 128° Southeast 162 186 13,000  Level Salt Lake Center
11:58AM 43.4425 -107.2783 134° Southeast 157 181 13,000  Level Salt Lake Center
11:59AM 43.4117 -107.2314 132° Southeast 163 188 13,000  Level Salt Lake Center
12:00PM 43.3811 -107.1847 132° Southeast 163 188 13,000  Level Salt Lake Center
12:01PM 43.3503 -107.1367 131° Southeast 164 189 13,000  Level Denver Center
12:02PM 43.3186 -107.0897 133° Southeast 165 190 13,000  Level Denver Center
12:03PM 43.2822 -107.0317 131° Southeast 168 193 13,000 -120 Level Salt Lake Center
12:04PM 43.2483 -106.9886 137° Southeast 167 192 12,800 -600 Descending Salt Lake Center
12:05PM 43.2083 -106.9294 133° Southeast 181 208 11,800 -840 Descending Salt Lake Center
12:06PM 43.1733 -106.8761 132° Southeast 190 219 11,100 -780 Descending Salt Lake Center
12:07PM 43.1383 -106.8247 133° Southeast 192 221 10,300 -840 Descending Salt Lake Center
12:08PM 43.1072 -106.7706 128° Southeast 191 220 9,600 -840 Descending Denver Center
12:09PM 43.0789 -106.7147 125° Southeast 191 220 8,700 -960 Descending Denver Center
12:10PM 43.0481 -106.6447 121° Southeast 191 220 7,700 -780 Descending Denver Center
12:11PM 43.0200 -106.5917 126° Southeast 188 216 7,100 -360 Descending Denver Center
12:12PM 42.9886 -106.5344 127° Southeast 176 203 7,000 -180 Descending Denver Center
12:13PM 42.9622 -106.4900 129° Southeast 166 191 6,800 -240 Descending Denver Center
12:14PM 42.9289 -106.4514 140° Southeast 157 181 6,500 -300 Descending Denver Center